createdAt,value
2019-02-07T00:00:51.990Z,13.60
2019-02-07T00:01:51.935Z,14.00
2019-02-07T00:02:51.889Z,14.30
2019-02-07T00:03:51.846Z,14.90
2019-02-07T00:04:51.789Z,14.90
2019-02-07T00:05:51.749Z,14.60
2019-02-07T00:06:54.456Z,13.70
2019-02-07T00:07:51.643Z,14.50
2019-02-07T00:08:51.594Z,13.50
2019-02-07T00:09:51.546Z,13.90
2019-02-07T00:10:51.497Z,14.40
2019-02-07T00:11:51.451Z,14.40
2019-02-07T00:12:51.397Z,13.60
2019-02-07T00:13:51.353Z,14.00
2019-02-07T00:14:51.302Z,14.30
2019-02-07T00:15:51.254Z,14.40
2019-02-07T00:16:51.200Z,14.20
2019-02-07T00:17:51.154Z,14.00
2019-02-07T00:18:51.110Z,14.00
2019-02-07T00:19:51.062Z,14.50
2019-02-07T00:20:51.013Z,13.20
2019-02-07T00:21:50.957Z,14.10
2019-02-07T00:22:50.910Z,14.40
2019-02-07T00:23:50.871Z,14.10
2019-02-07T00:24:50.814Z,14.50
2019-02-07T00:25:50.767Z,14.20
2019-02-07T00:26:50.714Z,13.40
2019-02-07T00:27:50.690Z,13.30
2019-02-07T00:28:50.692Z,14.10
2019-02-07T00:29:50.627Z,14.40
2019-02-07T00:30:50.609Z,13.70
2019-02-07T00:31:50.465Z,13.90
2019-02-07T00:32:50.420Z,13.20
2019-02-07T00:33:50.371Z,14.20
2019-02-07T00:34:50.324Z,13.30
2019-02-07T00:35:50.272Z,13.30
2019-02-07T00:36:50.229Z,13.50
2019-02-07T00:37:50.174Z,13.40
2019-02-07T00:38:50.131Z,13.40
2019-02-07T00:39:50.080Z,14.10
2019-02-07T00:40:50.029Z,13.90
2019-02-07T00:41:49.985Z,13.30
2019-02-07T00:42:49.931Z,13.70
2019-02-07T00:43:49.880Z,13.40
2019-02-07T00:44:51.435Z,14.00
2019-02-07T00:45:49.788Z,13.00
2019-02-07T00:46:49.734Z,13.30
2019-02-07T00:47:49.691Z,13.60
2019-02-07T00:48:49.635Z,12.90
2019-02-07T00:49:49.600Z,13.20
2019-02-07T00:50:49.537Z,13.60
2019-02-07T00:51:49.494Z,13.60
2019-02-07T00:52:49.445Z,13.10
2019-02-07T00:53:49.389Z,13.20
2019-02-07T00:54:49.349Z,13.10
2019-02-07T00:55:49.296Z,14.00
2019-02-07T00:56:49.243Z,13.80
2019-02-07T00:57:49.194Z,13.50
2019-02-07T00:58:49.151Z,13.30
2019-02-07T00:59:49.105Z,12.70
2019-02-07T01:00:49.046Z,12.70
2019-02-07T01:01:48.997Z,12.90
2019-02-07T01:02:48.950Z,12.90
2019-02-07T01:03:48.910Z,12.60
2019-02-07T01:04:48.857Z,13.60
2019-02-07T01:05:48.827Z,13.40
2019-02-07T01:06:48.754Z,13.70
2019-02-07T01:07:48.701Z,12.90
2019-02-07T01:08:48.662Z,13.30
2019-02-07T01:09:48.610Z,13.30
2019-02-07T01:10:48.562Z,13.40
2019-02-07T01:11:48.514Z,13.60
2019-02-07T01:12:48.464Z,14.50
2019-02-07T01:13:48.409Z,15.10
2019-02-07T01:14:48.361Z,14.20
2019-02-07T01:15:48.310Z,14.30
2019-02-07T01:16:48.263Z,14.00
2019-02-07T01:17:48.214Z,14.10
2019-02-07T01:18:48.168Z,13.70
2019-02-07T01:19:48.115Z,13.70
2019-02-07T01:20:48.063Z,13.80
2019-02-07T01:21:48.016Z,14.40
2019-02-07T01:22:47.969Z,14.20
2019-02-07T01:23:47.919Z,14.20
2019-02-07T01:24:47.873Z,13.50
2019-02-07T01:25:47.819Z,14.10
2019-02-07T01:26:47.776Z,14.50
2019-02-07T01:27:47.726Z,14.30
2019-02-07T01:28:47.668Z,14.40
2019-02-07T01:29:47.627Z,13.50
2019-02-07T01:30:47.572Z,13.60
2019-02-07T01:31:47.532Z,13.60
2019-02-07T01:32:47.481Z,13.40
2019-02-07T01:33:47.424Z,13.20
2019-02-07T01:34:47.374Z,13.90
2019-02-07T01:35:47.327Z,14.80
2019-02-07T01:36:47.275Z,13.10
2019-02-07T01:37:47.226Z,13.80
2019-02-07T01:38:47.189Z,14.10
2019-02-07T01:39:47.126Z,13.70
2019-02-07T01:40:47.082Z,14.50
2019-02-07T01:41:47.031Z,14.90
2019-02-07T01:42:46.980Z,13.60
2019-02-07T01:43:46.929Z,13.90
2019-02-07T01:44:46.887Z,14.20
2019-02-07T01:45:46.831Z,13.30
2019-02-07T01:46:46.787Z,13.90
2019-02-07T01:47:46.734Z,13.60
2019-02-07T01:48:46.683Z,13.40
2019-02-07T01:49:46.636Z,13.20
2019-02-07T01:50:46.586Z,12.50
2019-02-07T01:51:46.535Z,14.50
2019-02-07T01:52:46.492Z,14.50
2019-02-07T01:53:46.439Z,14.10
2019-02-07T01:54:46.386Z,13.20
2019-02-07T01:55:46.336Z,14.40
2019-02-07T01:56:46.292Z,13.20
2019-02-07T01:57:46.239Z,13.90
2019-02-07T01:58:46.201Z,13.80
2019-02-07T01:59:46.147Z,13.30
2019-02-07T02:00:46.102Z,13.10
2019-02-07T02:01:46.039Z,13.40
2019-02-07T02:02:45.991Z,12.80
2019-02-07T02:03:45.941Z,12.50
2019-02-07T02:04:45.892Z,12.50
2019-02-07T02:05:45.854Z,13.10
2019-02-07T02:06:45.794Z,12.90
2019-02-07T02:07:45.745Z,13.30
2019-02-07T02:08:45.707Z,13.10
2019-02-07T02:09:45.656Z,12.60
2019-02-07T02:10:45.595Z,12.70
2019-02-07T02:11:45.545Z,12.70
2019-02-07T02:12:45.497Z,12.70
2019-02-07T02:13:45.448Z,12.10
2019-02-07T02:14:45.407Z,12.90
2019-02-07T02:15:45.351Z,12.60
2019-02-07T02:16:45.307Z,12.60
2019-02-07T02:17:45.258Z,12.90
2019-02-07T02:18:45.208Z,12.30
2019-02-07T02:19:45.155Z,11.80
2019-02-07T02:20:45.102Z,12.40
2019-02-07T02:21:45.052Z,12.80
2019-02-07T02:22:45.006Z,12.60
2019-02-07T02:23:44.959Z,13.60
2019-02-07T02:24:45.344Z,12.90
2019-02-07T02:25:44.876Z,13.40
2019-02-07T02:26:44.815Z,13.00
2019-02-07T02:27:44.761Z,12.60
2019-02-07T02:28:44.705Z,12.90
2019-02-07T02:29:44.656Z,12.10
2019-02-07T02:30:44.610Z,13.10
2019-02-07T02:31:44.559Z,13.10
2019-02-07T02:32:44.512Z,13.80
2019-02-07T02:33:44.460Z,13.50
2019-02-07T02:34:44.414Z,13.00
2019-02-07T02:35:44.363Z,13.10
2019-02-07T02:36:44.310Z,13.80
2019-02-07T02:37:44.261Z,13.10
2019-02-07T02:38:44.224Z,13.50
2019-02-07T02:39:44.161Z,13.00
2019-02-07T02:40:44.114Z,12.90
2019-02-07T02:41:44.067Z,13.40
2019-02-07T02:42:44.020Z,13.80
2019-02-07T02:43:44.114Z,14.40
2019-02-07T02:44:43.917Z,13.70
2019-02-07T02:45:43.869Z,13.60
2019-02-07T02:46:43.820Z,13.60
2019-02-07T02:47:43.766Z,14.10
2019-02-07T02:48:43.723Z,14.30
2019-02-07T02:49:43.670Z,13.90
2019-02-07T02:50:43.632Z,14.10
2019-02-07T02:51:43.574Z,13.90
2019-02-07T02:52:43.667Z,13.60
2019-02-07T02:53:43.470Z,14.00
2019-02-07T02:54:43.427Z,13.50
2019-02-07T02:55:43.377Z,13.70
2019-02-07T02:56:43.329Z,13.50
2019-02-07T02:57:43.272Z,13.80
2019-02-07T02:58:43.225Z,12.90
2019-02-07T02:59:43.175Z,13.70
2019-02-07T03:00:43.123Z,13.70
2019-02-07T03:01:43.080Z,13.80
2019-02-07T03:02:43.030Z,14.00
2019-02-07T03:03:42.973Z,14.00
2019-02-07T03:04:42.925Z,13.20
2019-02-07T03:05:42.888Z,14.10
2019-02-07T03:06:42.825Z,13.30
2019-02-07T03:07:42.782Z,13.90
2019-02-07T03:08:42.736Z,13.30
2019-02-07T03:09:42.678Z,13.80
2019-02-07T03:10:42.630Z,13.50
2019-02-07T03:11:42.588Z,13.40
2019-02-07T03:12:42.530Z,13.00
2019-02-07T03:13:42.483Z,13.50
2019-02-07T03:14:42.429Z,13.60
2019-02-07T03:15:49.718Z,13.50
2019-02-07T03:16:42.334Z,13.30
2019-02-07T03:17:42.284Z,13.80
2019-02-07T03:18:42.231Z,12.90
2019-02-07T03:19:42.185Z,12.80
2019-02-07T03:20:42.137Z,13.00
2019-02-07T03:21:42.088Z,13.50
2019-02-07T03:22:42.036Z,13.30
2019-02-07T03:23:41.994Z,13.50
2019-02-07T03:24:41.947Z,12.80
2019-02-07T03:25:41.888Z,12.80
2019-02-07T03:26:41.834Z,12.40
2019-02-07T03:27:41.784Z,12.70
2019-02-07T03:28:41.733Z,11.70
2019-02-07T03:29:41.687Z,12.60
2019-02-07T03:30:41.638Z,13.00
2019-02-07T03:31:41.590Z,13.30
2019-02-07T03:32:41.538Z,12.60
2019-02-07T03:33:41.489Z,12.80
2019-02-07T03:34:41.438Z,12.70
2019-02-07T03:35:41.386Z,12.20
2019-02-07T03:36:41.345Z,12.20
2019-02-07T03:37:41.290Z,11.90
2019-02-07T03:38:41.238Z,12.10
2019-02-07T03:39:41.189Z,12.10
2019-02-07T03:40:41.141Z,12.10
2019-02-07T03:41:41.105Z,11.70
2019-02-07T03:42:41.049Z,11.60
2019-02-07T03:43:40.991Z,12.40
2019-02-07T03:44:40.946Z,12.20
2019-02-07T03:45:40.902Z,12.10
2019-02-07T03:46:40.850Z,12.10
2019-02-07T03:47:40.797Z,12.10
2019-02-07T03:48:40.747Z,11.80
2019-02-07T03:49:40.693Z,11.70
2019-02-07T03:50:40.650Z,11.70
2019-02-07T03:51:40.601Z,11.90
2019-02-07T03:52:40.546Z,12.00
2019-02-07T03:53:40.503Z,11.90
2019-02-07T03:54:40.451Z,10.90
2019-02-07T03:55:40.399Z,11.60
2019-02-07T03:56:40.348Z,11.60
2019-02-07T03:57:40.298Z,11.70
2019-02-07T03:58:40.255Z,11.60
2019-02-07T03:59:40.202Z,11.10
2019-02-07T04:00:40.152Z,11.40
2019-02-07T04:01:40.101Z,12.30
2019-02-07T04:02:40.684Z,11.50
2019-02-07T04:03:40.000Z,11.50
2019-02-07T04:04:39.952Z,11.50
2019-02-07T04:05:39.909Z,11.10
2019-02-07T04:06:39.855Z,10.90
2019-02-07T04:07:39.803Z,11.70
2019-02-07T04:08:39.756Z,11.70
2019-02-07T04:09:39.706Z,10.50
2019-02-07T04:10:39.657Z,11.20
2019-02-07T04:11:39.610Z,10.90
2019-02-07T04:12:39.562Z,11.40
2019-02-07T04:13:39.508Z,11.70
2019-02-07T04:14:39.459Z,11.60
2019-02-07T04:15:39.411Z,11.30
2019-02-07T04:16:39.359Z,11.40
2019-02-07T04:17:39.322Z,11.30
2019-02-07T04:18:39.266Z,10.80
2019-02-07T04:19:39.220Z,11.00
2019-02-07T04:20:39.168Z,11.50
2019-02-07T04:21:39.128Z,11.10
2019-02-07T04:22:39.065Z,10.90
2019-02-07T04:23:39.016Z,11.40
2019-02-07T04:24:38.965Z,10.80
2019-02-07T04:25:38.918Z,10.50
2019-02-07T04:26:38.890Z,10.80
2019-02-07T04:27:38.835Z,10.20
2019-02-07T04:28:38.775Z,10.30
2019-02-07T04:29:38.718Z,10.60
2019-02-07T04:30:38.671Z,10.40
2019-02-07T04:31:38.624Z,10.40
2019-02-07T04:32:38.574Z,11.30
2019-02-07T04:33:38.529Z,10.60
2019-02-07T04:34:38.479Z,10.20
2019-02-07T04:35:38.431Z,10.80
2019-02-07T04:36:38.376Z,10.80
2019-02-07T04:37:38.327Z,11.70
2019-02-07T04:38:38.284Z,11.30
2019-02-07T04:39:38.234Z,10.10
2019-02-07T04:40:38.189Z,10.70
2019-02-07T04:41:38.128Z,10.80
2019-02-07T04:42:38.083Z,10.80
2019-02-07T04:43:38.035Z,9.70
2019-02-07T04:44:37.979Z,10.60
2019-02-07T04:45:37.936Z,11.00
2019-02-07T04:46:37.891Z,11.50
2019-02-07T04:47:37.839Z,10.50
2019-02-07T04:48:37.793Z,10.70
2019-02-07T04:49:37.739Z,10.90
2019-02-07T04:50:37.682Z,11.10
2019-02-07T04:51:37.634Z,11.00
2019-02-07T04:52:37.591Z,10.60
2019-02-07T04:53:37.544Z,10.40
2019-02-07T04:54:37.489Z,11.60
2019-02-07T04:55:37.437Z,10.80
2019-02-07T04:56:37.387Z,10.70
2019-02-07T04:57:37.339Z,10.90
2019-02-07T04:58:37.293Z,11.20
2019-02-07T04:59:37.240Z,10.60
2019-02-07T05:00:37.194Z,10.80
2019-02-07T05:01:37.144Z,11.10
2019-02-07T05:02:37.094Z,10.70
2019-02-07T05:03:37.051Z,10.40
2019-02-07T05:04:37.002Z,10.40
2019-02-07T05:05:36.947Z,10.30
2019-02-07T05:06:36.913Z,10.10
2019-02-07T05:07:36.857Z,10.60
2019-02-07T05:08:36.820Z,10.40
2019-02-07T05:09:36.748Z,10.20
2019-02-07T05:10:36.702Z,10.70
2019-02-07T05:11:36.655Z,10.30
2019-02-07T05:12:36.602Z,9.90
2019-02-07T05:13:36.554Z,9.90
2019-02-07T05:14:36.506Z,9.90
2019-02-07T05:15:36.457Z,9.90
2019-02-07T05:16:39.689Z,10.50
2019-02-07T05:17:36.373Z,10.10
2019-02-07T05:18:36.313Z,10.00
2019-02-07T05:19:36.257Z,9.90
2019-02-07T05:20:36.215Z,9.50
2019-02-07T05:21:36.159Z,10.10
2019-02-07T05:22:36.113Z,9.70
2019-02-07T05:23:36.062Z,9.90
2019-02-07T05:24:36.013Z,9.50
2019-02-07T05:25:35.964Z,10.40
2019-02-07T05:26:35.913Z,10.30
2019-02-07T05:27:35.863Z,9.90
2019-02-07T05:28:35.818Z,9.90
2019-02-07T05:29:35.767Z,10.00
2019-02-07T05:30:35.716Z,9.20
2019-02-07T05:31:35.716Z,9.40
2019-02-07T05:32:36.344Z,10.40
2019-02-07T05:33:35.624Z,10.40
2019-02-07T05:34:35.606Z,9.50
2019-02-07T05:35:35.474Z,9.70
2019-02-07T05:36:35.421Z,9.90
2019-02-07T05:37:35.379Z,10.00
2019-02-07T05:38:35.324Z,9.90
2019-02-07T05:39:35.273Z,10.50
2019-02-07T05:40:35.230Z,10.10
2019-02-07T05:41:35.178Z,9.00
2019-02-07T05:42:35.129Z,9.90
2019-02-07T05:43:35.078Z,9.70
2019-02-07T05:44:35.047Z,9.90
2019-02-07T05:45:34.990Z,9.80
2019-02-07T05:46:34.952Z,10.00
2019-02-07T05:47:34.880Z,9.80
2019-02-07T05:48:34.847Z,9.90
2019-02-07T05:49:34.791Z,9.90
2019-02-07T05:50:34.735Z,9.60
2019-02-07T05:51:34.688Z,9.90
2019-02-07T05:52:34.705Z,9.80
2019-02-07T05:53:34.589Z,9.70
2019-02-07T05:54:34.545Z,9.70
2019-02-07T05:55:34.495Z,9.90
2019-02-07T05:56:34.447Z,9.80
2019-02-07T05:57:34.396Z,10.00
2019-02-07T05:58:34.345Z,9.40
2019-02-07T05:59:34.295Z,10.20
2019-02-07T06:00:34.246Z,9.40
2019-02-07T06:01:34.198Z,9.80
2019-02-07T06:02:34.148Z,9.90
2019-02-07T06:03:34.097Z,9.80
2019-02-07T06:04:34.052Z,9.60
2019-02-07T06:05:34.001Z,9.40
2019-02-07T06:06:33.952Z,9.30
2019-02-07T06:07:33.901Z,9.70
2019-02-07T06:08:33.854Z,9.90
2019-02-07T06:09:33.804Z,10.40
2019-02-07T06:10:33.754Z,9.80
2019-02-07T06:11:33.704Z,9.80
2019-02-07T06:12:33.692Z,9.90
2019-02-07T06:13:33.620Z,10.00
2019-02-07T06:14:33.563Z,9.40
2019-02-07T06:15:33.524Z,10.40
2019-02-07T06:16:33.464Z,10.60
2019-02-07T06:17:33.417Z,9.80
2019-02-07T06:18:33.368Z,9.70
2019-02-07T06:19:33.334Z,9.50
2019-02-07T06:20:33.273Z,9.90
2019-02-07T06:21:33.216Z,10.10
2019-02-07T06:22:33.166Z,9.70
2019-02-07T06:23:33.126Z,9.70
2019-02-07T06:24:33.073Z,9.80
2019-02-07T06:25:33.017Z,9.80
2019-02-07T06:26:32.984Z,10.30
2019-02-07T06:27:32.921Z,10.60
2019-02-07T06:28:32.874Z,10.10
2019-02-07T06:29:32.823Z,10.10
2019-02-07T06:30:32.777Z,9.70
2019-02-07T06:31:32.722Z,10.50
2019-02-07T06:32:32.685Z,9.80
2019-02-07T06:33:32.627Z,10.50
2019-02-07T06:34:32.580Z,10.20
2019-02-07T06:35:32.543Z,9.60
2019-02-07T06:36:32.479Z,10.30
2019-02-07T06:37:32.430Z,9.60
2019-02-07T06:38:32.388Z,9.90
2019-02-07T06:39:32.335Z,10.30
2019-02-07T06:40:32.283Z,9.50
2019-02-07T06:41:32.234Z,9.70
2019-02-07T06:42:32.189Z,9.60
2019-02-07T06:43:32.145Z,9.50
2019-02-07T06:44:32.088Z,10.00
2019-02-07T06:45:32.054Z,9.70
2019-02-07T06:46:31.996Z,9.40
2019-02-07T06:47:31.940Z,10.40
2019-02-07T06:48:31.900Z,9.90
2019-02-07T06:49:31.850Z,9.80
2019-02-07T06:50:31.794Z,10.40
2019-02-07T06:51:31.752Z,9.60
2019-02-07T06:52:31.697Z,9.90
2019-02-07T06:53:31.654Z,10.00
2019-02-07T06:54:31.607Z,9.50
2019-02-07T06:55:31.651Z,10.60
2019-02-07T06:56:31.501Z,9.40
2019-02-07T06:57:31.453Z,9.70
2019-02-07T06:58:31.405Z,9.00
2019-02-07T06:59:31.360Z,9.50
2019-02-07T07:00:31.305Z,9.80
2019-02-07T07:01:31.255Z,9.90
2019-02-07T07:02:31.214Z,10.00
2019-02-07T07:03:31.168Z,10.40
2019-02-07T07:04:31.111Z,9.70
2019-02-07T07:05:31.063Z,10.10
2019-02-07T07:06:31.015Z,10.00
2019-02-07T07:07:30.964Z,10.50
2019-02-07T07:08:31.017Z,10.20
2019-02-07T07:09:30.888Z,10.10
2019-02-07T07:10:30.818Z,10.30
2019-02-07T07:11:30.771Z,9.60
2019-02-07T07:12:30.725Z,10.80
2019-02-07T07:13:30.673Z,10.50
2019-02-07T07:14:30.625Z,10.70
2019-02-07T07:15:30.581Z,10.50
2019-02-07T07:16:30.524Z,10.50
2019-02-07T07:17:30.481Z,10.30
2019-02-07T07:18:30.430Z,10.90
2019-02-07T07:19:30.380Z,11.20
2019-02-07T07:20:30.330Z,11.30
2019-02-07T07:21:30.291Z,10.90
2019-02-07T07:22:30.232Z,11.40
2019-02-07T07:23:30.199Z,12.40
2019-02-07T07:24:30.133Z,11.80
2019-02-07T07:25:30.085Z,13.00
2019-02-07T07:26:30.044Z,12.20
2019-02-07T07:27:29.991Z,12.10
2019-02-07T07:28:29.944Z,12.30
2019-02-07T07:29:29.916Z,12.10
2019-02-07T07:30:29.879Z,12.50
2019-02-07T07:31:29.803Z,12.00
2019-02-07T07:32:29.773Z,12.70
2019-02-07T07:33:29.695Z,12.50
2019-02-07T07:34:29.647Z,12.60
2019-02-07T07:35:29.601Z,12.80
2019-02-07T07:36:29.546Z,12.40
2019-02-07T07:37:29.499Z,12.60
2019-02-07T07:38:29.462Z,12.60
2019-02-07T07:39:29.401Z,12.30
2019-02-07T07:40:29.355Z,12.80
2019-02-07T07:41:29.301Z,12.60
2019-02-07T07:42:29.256Z,12.50
2019-02-07T07:43:30.518Z,12.40
2019-02-07T07:44:29.158Z,12.70
2019-02-07T07:45:29.107Z,13.20
2019-02-07T07:46:29.060Z,12.60
2019-02-07T07:47:35.756Z,12.70
2019-02-07T07:48:29.021Z,12.80
2019-02-07T07:49:28.912Z,12.40
2019-02-07T07:50:28.864Z,13.00
2019-02-07T07:51:28.828Z,13.40
2019-02-07T07:52:28.783Z,12.70
2019-02-07T07:53:28.821Z,12.80
2019-02-07T07:54:28.670Z,12.80
2019-02-07T07:55:28.616Z,13.00
2019-02-07T07:56:28.567Z,12.80
2019-02-07T07:57:28.518Z,12.90
2019-02-07T07:58:28.477Z,13.10
2019-02-07T07:59:28.422Z,12.40
2019-02-07T08:00:28.378Z,12.40
2019-02-07T08:01:28.323Z,11.70
2019-02-07T08:02:28.275Z,12.30
2019-02-07T08:03:28.237Z,12.00
2019-02-07T08:04:28.181Z,12.60
2019-02-07T08:05:28.141Z,12.10
2019-02-07T08:06:28.086Z,11.90
2019-02-07T08:07:28.039Z,11.50
2019-02-07T08:08:27.981Z,11.50
2019-02-07T08:09:27.943Z,12.20
2019-02-07T08:10:27.886Z,12.00
2019-02-07T08:11:27.850Z,11.00
2019-02-07T08:12:27.884Z,11.30
2019-02-07T08:13:27.742Z,11.40
2019-02-07T08:14:27.691Z,11.40
2019-02-07T08:15:27.646Z,11.50
2019-02-07T08:16:27.591Z,11.40
2019-02-07T08:17:27.542Z,11.70
2019-02-07T08:18:27.506Z,11.00
2019-02-07T08:19:27.447Z,11.30
2019-02-07T08:20:27.400Z,11.50
2019-02-07T08:21:27.352Z,11.20
2019-02-07T08:22:27.299Z,11.20
2019-02-07T08:23:27.252Z,11.00
2019-02-07T08:24:27.200Z,11.30
2019-02-07T08:25:27.151Z,11.70
2019-02-07T08:26:27.104Z,12.10
2019-02-07T08:27:27.054Z,11.60
2019-02-07T08:28:27.014Z,11.10
2019-02-07T08:29:26.960Z,11.00
2019-02-07T08:30:36.171Z,11.70
2019-02-07T08:31:26.878Z,11.80
2019-02-07T08:32:26.828Z,11.90
2019-02-07T08:33:26.789Z,11.50
2019-02-07T08:34:26.723Z,11.70
2019-02-07T08:35:26.663Z,11.50
2019-02-07T08:36:26.614Z,11.80
2019-02-07T08:37:26.570Z,11.00
2019-02-07T08:38:26.518Z,11.40
2019-02-07T08:39:26.469Z,11.10
2019-02-07T08:40:26.423Z,11.70
2019-02-07T08:41:26.375Z,11.20
2019-02-07T08:42:26.325Z,11.30
2019-02-07T08:43:26.279Z,10.80
2019-02-07T08:44:26.234Z,10.90
2019-02-07T08:45:26.180Z,12.20
2019-02-07T08:46:26.146Z,11.00
2019-02-07T08:47:26.081Z,10.50
2019-02-07T08:48:26.040Z,11.20
2019-02-07T08:49:25.986Z,10.50
2019-02-07T08:50:25.940Z,10.90
2019-02-07T08:51:25.892Z,10.70
2019-02-07T08:52:25.840Z,10.70
2019-02-07T08:53:25.793Z,10.40
2019-02-07T08:54:25.744Z,10.30
2019-02-07T08:55:25.729Z,9.70
2019-02-07T08:56:25.653Z,9.70
2019-02-07T08:57:25.598Z,9.10
2019-02-07T08:58:25.551Z,9.50
2019-02-07T08:59:25.506Z,9.40
2019-02-07T09:00:25.452Z,10.00
2019-02-07T09:01:25.409Z,9.00
2019-02-07T09:02:25.353Z,9.30
2019-02-07T09:03:25.311Z,9.20
2019-02-07T09:04:25.260Z,8.70
2019-02-07T09:05:25.228Z,9.70
2019-02-07T09:06:25.163Z,8.80
2019-02-07T09:07:25.112Z,8.80
2019-02-07T09:08:25.070Z,8.70
2019-02-07T09:09:25.032Z,8.70
2019-02-07T09:10:24.967Z,8.60
2019-02-07T09:11:24.940Z,8.70
2019-02-07T09:12:24.871Z,8.70
2019-02-07T09:13:24.838Z,8.50
2019-02-07T09:14:24.781Z,8.30
2019-02-07T09:15:24.726Z,8.80
2019-02-07T09:16:24.678Z,8.40
2019-02-07T09:17:24.631Z,7.80
2019-02-07T09:18:24.587Z,8.20
2019-02-07T09:19:24.541Z,7.40
2019-02-07T09:20:24.484Z,7.40
2019-02-07T09:21:24.443Z,7.40
2019-02-07T09:22:24.391Z,7.50
2019-02-07T09:23:24.341Z,7.80
2019-02-07T09:24:24.305Z,7.70
2019-02-07T09:25:24.244Z,7.30
2019-02-07T09:26:24.197Z,7.30
2019-02-07T09:27:24.149Z,6.90
2019-02-07T09:28:24.110Z,7.00
2019-02-07T09:29:24.054Z,6.80
2019-02-07T09:30:24.006Z,7.00
2019-02-07T09:31:23.965Z,6.80
2019-02-07T09:32:23.919Z,6.20
2019-02-07T09:33:26.667Z,4.70
2019-02-07T09:34:23.821Z,4.80
2019-02-07T09:35:23.774Z,4.70
2019-02-07T09:36:23.725Z,4.80
2019-02-07T09:37:23.672Z,4.50
2019-02-07T09:38:23.622Z,4.40
2019-02-07T09:39:23.575Z,3.90
2019-02-07T09:40:23.529Z,4.10
2019-02-07T09:41:23.480Z,4.00
2019-02-07T09:42:23.431Z,3.80
2019-02-07T09:43:25.440Z,3.80
2019-02-07T09:44:23.337Z,4.70
2019-02-07T09:45:23.292Z,4.40
2019-02-07T09:46:23.241Z,3.70
2019-02-07T09:47:23.194Z,3.40
2019-02-07T09:48:23.152Z,3.80
2019-02-07T09:49:23.100Z,4.30
2019-02-07T09:50:23.071Z,3.80
2019-02-07T09:51:23.010Z,4.50
2019-02-07T09:52:22.955Z,4.40
2019-02-07T09:53:24.201Z,4.20
2019-02-07T09:54:22.874Z,4.60
2019-02-07T09:55:22.834Z,4.40
2019-02-07T09:56:22.765Z,4.00
2019-02-07T09:57:22.832Z,4.50
2019-02-07T09:58:22.676Z,3.60
2019-02-07T09:59:22.629Z,3.40
2019-02-07T10:00:22.581Z,4.40
2019-02-07T10:01:22.530Z,4.10
2019-02-07T10:02:22.482Z,3.60
2019-02-07T10:03:22.432Z,3.80
2019-02-07T10:04:22.402Z,3.80
2019-02-07T10:05:22.338Z,4.10
2019-02-07T10:06:22.297Z,4.60
2019-02-07T10:07:22.242Z,4.30
2019-02-07T10:08:22.193Z,4.40
2019-02-07T10:09:22.153Z,4.20
2019-02-07T10:10:22.103Z,4.10
2019-02-07T10:11:22.056Z,4.20
2019-02-07T10:12:22.017Z,4.60
2019-02-07T10:13:21.958Z,4.10
2019-02-07T10:14:21.909Z,4.60
2019-02-07T10:15:21.866Z,3.90
2019-02-07T10:16:21.822Z,4.00
2019-02-07T10:17:21.773Z,4.20
2019-02-07T10:18:32.546Z,4.30
2019-02-07T10:19:21.676Z,4.60
2019-02-07T10:20:21.627Z,4.40
2019-02-07T10:21:21.579Z,4.10
2019-02-07T10:22:21.533Z,3.90
2019-02-07T10:23:21.490Z,4.90
2019-02-07T10:24:21.445Z,4.20
2019-02-07T10:25:21.391Z,3.90
2019-02-07T10:26:21.360Z,4.00
2019-02-07T10:27:21.310Z,4.80
2019-02-07T10:28:21.248Z,4.70
2019-02-07T10:29:21.203Z,5.50
2019-02-07T10:30:21.156Z,4.10
2019-02-07T10:31:21.107Z,4.50
2019-02-07T10:32:21.063Z,4.50
2019-02-07T10:33:21.022Z,4.50
2019-02-07T10:34:20.967Z,4.10
2019-02-07T10:35:22.858Z,4.50
2019-02-07T10:36:20.881Z,4.30
2019-02-07T10:37:20.825Z,4.40
2019-02-07T10:38:20.780Z,4.00
2019-02-07T10:39:20.732Z,4.40
2019-02-07T10:40:20.686Z,3.80
2019-02-07T10:41:20.637Z,4.70
2019-02-07T10:42:20.589Z,3.80
2019-02-07T10:43:20.543Z,4.50
2019-02-07T10:44:20.502Z,4.10
2019-02-07T10:45:20.450Z,4.20
2019-02-07T10:46:21.534Z,4.50
2019-02-07T10:47:20.355Z,4.10
2019-02-07T10:48:20.307Z,4.00
2019-02-07T10:49:20.264Z,4.20
2019-02-07T10:50:20.221Z,3.80
2019-02-07T10:51:20.167Z,4.30
2019-02-07T10:52:20.126Z,4.20
2019-02-07T10:53:20.081Z,4.40
2019-02-07T10:54:20.032Z,3.90
2019-02-07T10:55:19.995Z,4.40
2019-02-07T10:56:19.946Z,3.70
2019-02-07T10:57:19.910Z,5.00
2019-02-07T10:58:19.839Z,3.90
2019-02-07T10:59:19.798Z,4.30
2019-02-07T11:00:19.744Z,5.20
2019-02-07T11:01:19.698Z,4.40
2019-02-07T11:02:19.658Z,4.00
2019-02-07T11:03:19.607Z,4.20
2019-02-07T11:04:19.559Z,3.90
2019-02-07T11:05:19.509Z,4.70
2019-02-07T11:06:19.462Z,4.50
2019-02-07T11:07:19.414Z,4.20
2019-02-07T11:08:19.374Z,4.70
2019-02-07T11:09:19.320Z,4.40
2019-02-07T11:10:19.274Z,4.30
2019-02-07T11:11:19.226Z,4.10
2019-02-07T11:12:19.183Z,4.30
2019-02-07T11:13:19.136Z,4.10
2019-02-07T11:14:19.088Z,3.90
2019-02-07T11:15:19.045Z,4.30
2019-02-07T11:16:19.021Z,3.90
2019-02-07T11:17:18.947Z,4.10
2019-02-07T11:18:18.921Z,3.70
2019-02-07T11:19:21.299Z,4.30
2019-02-07T11:20:18.806Z,4.40
2019-02-07T11:21:18.758Z,3.80
2019-02-07T11:22:18.711Z,4.00
2019-02-07T11:23:18.669Z,4.10
2019-02-07T11:24:18.622Z,4.20
2019-02-07T11:25:18.572Z,3.80
2019-02-07T11:26:18.524Z,3.60
2019-02-07T11:27:18.481Z,4.30
2019-02-07T11:28:18.431Z,4.50
2019-02-07T11:29:18.470Z,4.60
2019-02-07T11:30:18.340Z,3.90
2019-02-07T11:31:18.291Z,4.20
2019-02-07T11:32:18.245Z,4.00
2019-02-07T11:33:18.199Z,4.40
2019-02-07T11:34:18.150Z,4.20
2019-02-07T11:35:18.105Z,4.40
2019-02-07T11:36:18.054Z,4.40
2019-02-07T11:37:18.015Z,4.00
2019-02-07T11:38:17.966Z,3.80
2019-02-07T11:39:17.914Z,4.00
2019-02-07T11:40:17.874Z,4.30
2019-02-07T11:41:17.847Z,3.90
2019-02-07T11:42:17.798Z,4.30
2019-02-07T11:43:17.736Z,4.00
2019-02-07T11:44:17.680Z,4.10
2019-02-07T11:45:17.633Z,4.50
2019-02-07T11:46:17.591Z,4.20
2019-02-07T11:47:17.539Z,4.30
2019-02-07T11:48:17.510Z,3.90
2019-02-07T11:49:17.500Z,4.40
2019-02-07T11:50:17.445Z,4.10
2019-02-07T11:51:17.864Z,4.40
2019-02-07T11:52:17.305Z,4.30
2019-02-07T11:53:17.274Z,4.20
2019-02-07T11:54:17.222Z,4.40
2019-02-07T11:55:17.163Z,3.90
2019-02-07T11:56:17.118Z,4.00
2019-02-07T11:57:17.077Z,4.60
2019-02-07T11:58:17.031Z,4.10
2019-02-07T11:59:16.977Z,4.30
2019-02-07T12:00:16.928Z,4.00
2019-02-07T12:01:17.095Z,4.20
2019-02-07T12:02:16.871Z,4.90
2019-02-07T12:03:16.786Z,4.50
2019-02-07T12:04:16.741Z,4.70
2019-02-07T12:05:17.341Z,4.40
2019-02-07T12:06:16.656Z,4.30
2019-02-07T12:07:16.602Z,4.50
2019-02-07T12:08:16.562Z,3.90
2019-02-07T12:09:16.514Z,4.90
2019-02-07T12:10:16.468Z,3.70
2019-02-07T12:11:16.419Z,4.60
2019-02-07T12:12:16.367Z,4.30
2019-02-07T12:13:16.328Z,4.30
2019-02-07T12:14:16.277Z,3.70
2019-02-07T12:15:16.226Z,4.20
2019-02-07T12:16:16.347Z,4.20
2019-02-07T12:17:16.132Z,3.80
2019-02-07T12:18:16.086Z,4.30
2019-02-07T12:19:18.206Z,3.90
2019-02-07T12:20:15.991Z,4.00
2019-02-07T12:21:15.944Z,4.70
2019-02-07T12:22:15.897Z,3.80
2019-02-07T12:23:15.860Z,4.30
2019-02-07T12:24:15.807Z,4.10
2019-02-07T12:25:15.771Z,4.40
2019-02-07T12:26:15.726Z,4.20
2019-02-07T12:27:15.665Z,4.10
2019-02-07T12:28:15.620Z,4.10
2019-02-07T12:29:15.573Z,3.90
2019-02-07T12:30:15.536Z,4.40
2019-02-07T12:31:15.484Z,3.40
2019-02-07T12:32:15.431Z,4.10
2019-02-07T12:33:15.388Z,3.90
2019-02-07T12:34:15.343Z,4.30
2019-02-07T12:35:15.292Z,3.80
2019-02-07T12:36:15.245Z,4.20
2019-02-07T12:37:15.207Z,3.50
2019-02-07T12:38:15.154Z,4.10
2019-02-07T12:39:15.112Z,3.60
2019-02-07T12:40:15.064Z,3.80
2019-02-07T12:41:15.016Z,4.30
2019-02-07T12:42:14.972Z,4.00
2019-02-07T12:43:14.922Z,3.60
2019-02-07T12:44:14.886Z,3.40
2019-02-07T12:45:14.863Z,3.60
2019-02-07T12:46:14.802Z,3.70
2019-02-07T12:47:14.736Z,3.80
2019-02-07T12:48:14.687Z,3.40
2019-02-07T12:49:14.645Z,4.00
2019-02-07T12:50:14.599Z,3.60
2019-02-07T12:51:14.550Z,3.80
2019-02-07T12:52:14.503Z,3.50
2019-02-07T12:53:14.458Z,3.40
2019-02-07T12:54:14.409Z,3.30
2019-02-07T12:55:14.368Z,3.60
2019-02-07T12:56:14.330Z,3.30
2019-02-07T12:57:14.282Z,4.10
2019-02-07T12:58:14.233Z,3.60
2019-02-07T12:59:14.177Z,3.70
2019-02-07T13:00:14.130Z,3.30
2019-02-07T13:01:14.084Z,3.40
2019-02-07T13:02:14.040Z,3.10
2019-02-07T13:03:13.991Z,3.20